createdAt,value
2022-12-01T00:01:40.766Z,101402.22
2022-12-01T00:04:09.221Z,101398.72
2022-12-01T00:06:38.403Z,101400.28
2022-12-01T00:09:24.279Z,101404.78
2022-12-01T00:11:54.237Z,101407.44
2022-12-01T00:14:22.974Z,101420.66
2022-12-01T00:16:51.345Z,101409.25
2022-12-01T00:19:19.935Z,101414.69
2022-12-01T00:21:48.423Z,101411.19
2022-12-01T00:24:16.874Z,101409.31
2022-12-01T00:26:45.256Z,101417.97
2022-12-01T00:29:15.104Z,101411.28
2022-12-01T00:31:43.645Z,101406.88
2022-12-01T00:34:23.816Z,101409.38
2022-12-01T00:36:52.332Z,101411.19
2022-12-01T00:39:20.961Z,101406.75
2022-12-01T00:41:49.420Z,101402.53
2022-12-01T00:44:19.320Z,101396.34
2022-12-01T00:46:47.836Z,101410.22
2022-12-01T00:49:16.636Z,101409.47
2022-12-01T00:51:45.234Z,101411.97
2022-12-01T00:54:13.611Z,101405.84
2022-12-01T00:56:42.256Z,101411.06
2022-12-01T00:59:10.821Z,101403.13
2022-12-01T01:01:40.752Z,101406.88
2022-12-01T01:04:09.169Z,101405.19
2022-12-01T01:06:38.015Z,101406.09
2022-12-01T01:09:06.380Z,101401.78
2022-12-01T01:11:35.036Z,101400.88
2022-12-01T01:14:03.398Z,101376.91
2022-12-01T01:16:32.011Z,101391.97
2022-12-01T01:19:02.015Z,101391.91
2022-12-01T01:21:30.618Z,101377.38
2022-12-01T01:23:59.023Z,101391.78
2022-12-01T01:26:29.669Z,101384.75
2022-12-01T01:28:59.919Z,101386.34
2022-12-01T01:31:29.639Z,101373.94
2022-12-01T01:33:58.442Z,101370.47
2022-12-01T01:36:28.827Z,101378.91
2022-12-01T01:38:57.355Z,101365.88
2022-12-01T01:41:26.087Z,101369.97
2022-12-01T01:43:56.714Z,101370.66
2022-12-01T01:46:26.770Z,101362.69
2022-12-01T01:49:00.529Z,101363.50
2022-12-01T01:51:34.886Z,101360.09
2022-12-01T01:54:08.022Z,101355.91
2022-12-01T01:56:38.234Z,101360.09
2022-12-01T01:59:06.854Z,101365.97
2022-12-01T02:01:35.388Z,101360.50
2022-12-01T02:04:04.687Z,101359.69
2022-12-01T02:06:34.709Z,101355.19
2022-12-01T02:09:03.074Z,101344.75
2022-12-01T02:12:14.048Z,101357.63
2022-12-01T02:15:04.433Z,101356.03
2022-12-01T02:17:41.964Z,101361.38
2022-12-01T02:20:43.234Z,101355.31
2022-12-01T02:23:37.493Z,101354.22
2022-12-01T02:26:21.573Z,101356.03
2022-12-01T02:29:17.132Z,101334.81
2022-12-01T02:31:57.262Z,101356.88
2022-12-01T02:34:31.112Z,101348.25
2022-12-01T02:37:06.706Z,101351.78
2022-12-01T02:39:39.455Z,101347.44
2022-12-01T02:42:33.067Z,101346.50
2022-12-01T02:45:06.190Z,101347.31
2022-12-01T02:47:38.120Z,101341.88
2022-12-01T02:50:09.441Z,101334.06
2022-12-01T02:52:39.123Z,101332.22
2022-12-01T02:55:08.104Z,101337.41
2022-12-01T02:57:36.466Z,101337.19
2022-12-01T03:00:06.934Z,101330.28
2022-12-01T03:02:44.881Z,101328.31
2022-12-01T03:05:20.808Z,101322.19
2022-12-01T03:07:58.761Z,101317.88
2022-12-01T03:10:33.589Z,101324.94
2022-12-01T03:13:11.314Z,101310.28
2022-12-01T03:15:49.175Z,101323.25
2022-12-01T03:18:27.167Z,101319.84
2022-12-01T03:21:01.208Z,101319.66
2022-12-01T03:23:34.188Z,101322.28
2022-12-01T03:26:07.290Z,101312.81
2022-12-01T03:28:39.697Z,101318.50
2022-12-01T03:31:12.191Z,101321.88
2022-12-01T03:33:47.265Z,101319.22
2022-12-01T03:36:21.847Z,101320.06
2022-12-01T03:38:53.850Z,101320.00
2022-12-01T03:41:27.628Z,101327.97
2022-12-01T03:44:04.642Z,101315.75
2022-12-01T03:46:42.726Z,101314.78
2022-12-01T03:49:13.500Z,101308.00
2022-12-01T03:51:49.756Z,101320.78
2022-12-01T03:54:24.107Z,101306.84
2022-12-01T03:56:57.992Z,101305.84
2022-12-01T03:59:28.446Z,101311.94
2022-12-01T04:01:57.081Z,101312.75
2022-12-01T04:04:26.896Z,101314.53
2022-12-01T04:06:55.625Z,101315.31
2022-12-01T04:09:23.946Z,101324.75
2022-12-01T04:12:09.928Z,101328.22
2022-12-01T04:14:38.296Z,101322.22
2022-12-01T04:17:06.869Z,101322.09
2022-12-01T04:19:36.746Z,101324.63
2022-12-01T04:22:05.428Z,101318.44
2022-12-01T04:24:33.976Z,101322.75
2022-12-01T04:27:02.326Z,101318.44
2022-12-01T04:29:30.677Z,101321.25
2022-12-01T04:31:59.062Z,101324.72
2022-12-01T04:34:27.527Z,101322.03
2022-12-01T04:36:57.408Z,101323.78
2022-12-01T04:39:25.737Z,101318.56
2022-12-01T04:41:54.157Z,101318.56
2022-12-01T04:44:22.671Z,101334.09
2022-12-01T04:46:52.733Z,101326.16
2022-12-01T04:49:21.830Z,101324.38
2022-12-01T04:51:50.825Z,101334.69
2022-12-01T04:54:20.825Z,101333.84
2022-12-01T04:56:49.308Z,101330.25
2022-12-01T04:59:17.816Z,101335.41
2022-12-01T05:01:48.237Z,101335.41
2022-12-01T05:04:16.990Z,101337.03
2022-12-01T05:06:45.750Z,101335.28
2022-12-01T05:09:17.760Z,101337.88
2022-12-01T05:11:47.827Z,101338.66
2022-12-01T05:14:16.200Z,101334.38
2022-12-01T05:16:44.718Z,101335.16
2022-12-01T05:19:30.875Z,101329.91
2022-12-01T05:21:59.227Z,101330.84
2022-12-01T05:24:27.618Z,101333.38
2022-12-01T05:26:57.374Z,101334.16
2022-12-01T05:29:25.844Z,101337.63
2022-12-01T05:31:54.411Z,101335.00
2022-12-01T05:34:22.954Z,101314.53
2022-12-01T05:36:51.832Z,101335.72
2022-12-01T05:39:20.383Z,101324.56
2022-12-01T05:41:48.832Z,101320.91
2022-12-01T05:44:18.991Z,101326.13
2022-12-01T05:46:47.493Z,101319.34
2022-12-01T05:49:16.095Z,101325.31
2022-12-01T05:51:44.930Z,101319.69
2022-12-01T05:54:13.380Z,101308.09
2022-12-01T05:56:41.964Z,101318.13
2022-12-01T05:59:10.817Z,101329.63
2022-12-01T06:01:40.783Z,101322.06
2022-12-01T06:04:09.868Z,101333.34
2022-12-01T06:06:38.208Z,101331.59
2022-12-01T06:09:06.599Z,101334.22
2022-12-01T06:11:35.049Z,101331.72
2022-12-01T06:14:03.640Z,101336.88
2022-12-01T06:16:32.120Z,101315.59
2022-12-01T06:19:03.085Z,101333.28
2022-12-01T06:21:31.490Z,101321.34
2022-12-01T06:24:00.093Z,101333.28
2022-12-01T06:26:28.447Z,101334.91
2022-12-01T06:28:58.434Z,101325.31
2022-12-01T06:31:26.884Z,101331.50
2022-12-01T06:33:55.513Z,101341.25
2022-12-01T06:36:25.364Z,101339.44
2022-12-01T06:38:54.139Z,101315.56
2022-12-01T06:41:23.034Z,101337.59
2022-12-01T06:43:51.425Z,101330.53
2022-12-01T06:46:19.882Z,101335.63
2022-12-01T06:48:49.883Z,101339.06
2022-12-01T06:51:18.825Z,101325.22
2022-12-01T06:53:48.687Z,101343.31
2022-12-01T06:56:17.917Z,101342.41
2022-12-01T06:58:46.644Z,101325.38
2022-12-01T07:01:16.300Z,101315.28
2022-12-01T07:03:45.193Z,101349.34
2022-12-01T07:06:13.599Z,101344.94
2022-12-01T07:08:42.495Z,101337.06
2022-12-01T07:11:13.956Z,101337.88
2022-12-01T07:13:45.637Z,101343.06
2022-12-01T07:16:14.258Z,101355.13
2022-12-01T07:18:44.868Z,101348.16
2022-12-01T07:21:16.171Z,101358.47
2022-12-01T07:23:45.288Z,101350.53
2022-12-01T07:26:16.785Z,101360.94
2022-12-01T07:28:46.372Z,101360.03
2022-12-01T07:31:17.145Z,101347.91
2022-12-01T07:33:45.940Z,101359.09
2022-12-01T07:36:14.916Z,101351.13
2022-12-01T07:38:43.322Z,101362.34
2022-12-01T07:41:15.211Z,101358.03
2022-12-01T07:43:44.604Z,101368.34
2022-12-01T07:46:21.767Z,101366.63
2022-12-01T07:48:51.834Z,101372.63
2022-12-01T07:51:20.941Z,101350.34
2022-12-01T07:53:51.445Z,101362.22
2022-12-01T07:56:22.310Z,101368.88
2022-12-01T07:58:51.014Z,101368.88
2022-12-01T08:01:21.560Z,101364.50
2022-12-01T08:03:53.284Z,101362.72
2022-12-01T08:06:22.105Z,101355.16
2022-12-01T08:08:50.961Z,101367.66
2022-12-01T08:11:22.497Z,101368.44
2022-12-01T08:13:51.830Z,101358.00
2022-12-01T08:16:21.756Z,101376.09
2022-12-01T08:18:50.798Z,101353.75
2022-12-01T08:21:21.174Z,101360.41
2022-12-01T08:23:49.709Z,101364.78
2022-12-01T08:26:20.915Z,101374.31
2022-12-01T08:28:50.043Z,101368.16
2022-12-01T08:31:21.338Z,101366.41
2022-12-01T08:33:51.131Z,101363.78
2022-12-01T08:36:20.692Z,101367.09
2022-12-01T08:38:51.467Z,101360.03
2022-12-01T08:41:22.107Z,101362.50
2022-12-01T08:43:59.239Z,101364.97
2022-12-01T08:46:28.558Z,101356.22
2022-12-01T08:48:58.113Z,101353.59
2022-12-01T08:51:27.756Z,101370.06
2022-12-01T08:53:58.052Z,101364.69
2022-12-01T08:56:30.424Z,101371.97
2022-12-01T08:58:59.926Z,101365.38
2022-12-01T09:01:28.901Z,101365.38
2022-12-01T09:04:08.785Z,101359.66
2022-12-01T09:06:42.075Z,101366.88
2022-12-01T09:09:12.034Z,101368.56
2022-12-01T09:11:44.058Z,101371.13
2022-12-01T09:14:13.164Z,101364.25
2022-12-01T09:16:42.325Z,101371.19
2022-12-01T09:19:13.241Z,101367.66
2022-12-01T09:21:42.931Z,101355.94
2022-12-01T09:24:13.390Z,101359.03
2022-12-01T09:26:43.625Z,101356.22
2022-12-01T09:29:15.028Z,101366.53
2022-12-01T09:31:44.483Z,101365.63
2022-12-01T09:34:15.668Z,101362.00
2022-12-01T09:36:44.356Z,101353.31
2022-12-01T09:39:14.887Z,101350.69
2022-12-01T09:41:48.852Z,101340.22
2022-12-01T09:44:26.999Z,101346.09
2022-12-01T09:46:59.600Z,101341.06
2022-12-01T09:49:38.617Z,101347.94
2022-12-01T09:52:11.333Z,101341.16
2022-12-01T09:54:39.821Z,101326.72
2022-12-01T09:57:17.200Z,101340.22
2022-12-01T09:59:48.758Z,101340.28
2022-12-01T10:02:28.498Z,101323.81
2022-12-01T10:05:00.864Z,101333.22
2022-12-01T10:07:33.331Z,101317.03
2022-12-01T10:10:04.665Z,101336.59
2022-12-01T10:12:36.398Z,101338.28
2022-12-01T10:15:26.403Z,101331.38
2022-12-01T10:18:06.835Z,101334.22
2022-12-01T10:20:43.898Z,101330.81
2022-12-01T10:23:30.001Z,101325.44
2022-12-01T10:26:01.234Z,101328.75
2022-12-01T10:28:54.309Z,101325.38
2022-12-01T10:31:30.629Z,101323.38
2022-12-01T10:34:03.180Z,101314.69
2022-12-01T10:36:33.699Z,101317.38
2022-12-01T10:39:02.871Z,101325.00
2022-12-01T10:41:34.538Z,101320.59
2022-12-01T10:44:07.197Z,101310.13
2022-12-01T10:46:42.800Z,101303.34
2022-12-01T10:49:12.850Z,101307.53
2022-12-01T10:51:55.701Z,101297.34
2022-12-01T10:54:26.012Z,101304.06
2022-12-01T10:56:57.928Z,101298.75
2022-12-01T10:59:34.763Z,101303.97
2022-12-01T11:02:05.575Z,101294.44
2022-12-01T11:04:45.721Z,101298.69
2022-12-01T11:07:21.296Z,101294.22
2022-12-01T11:10:03.388Z,101302.84
2022-12-01T11:12:33.102Z,101301.06
2022-12-01T11:15:03.839Z,101292.22
2022-12-01T11:17:36.551Z,101275.34
2022-12-01T11:20:29.001Z,101296.53
2022-12-01T11:23:29.574Z,101292.09
2022-12-01T11:26:04.005Z,101299.88
2022-12-01T11:28:34.233Z,101288.63
2022-12-01T11:31:07.012Z,101288.63
2022-12-01T11:33:45.985Z,101292.94
2022-12-01T11:36:22.936Z,101293.72
2022-12-01T11:38:56.476Z,101289.41
2022-12-01T11:41:30.415Z,101297.09
2022-12-01T11:47:22.647Z,101304.94
2022-12-01T11:49:56.771Z,101291.88
2022-12-01T11:52:30.214Z,101293.56
2022-12-01T11:55:09.962Z,101289.94
2022-12-01T11:57:41.659Z,101295.41
2022-12-01T12:00:18.272Z,101290.19
2022-12-01T12:03:03.192Z,101283.91
2022-12-01T12:06:17.839Z,101288.03
2022-12-01T12:09:03.718Z,101277.56
2022-12-01T12:11:44.661Z,101280.00
2022-12-01T12:14:33.530Z,101278.22
2022-12-01T12:17:21.614Z,101279.25
2022-12-01T12:20:09.793Z,101285.41
2022-12-01T12:22:55.204Z,101273.16
2022-12-01T12:25:50.598Z,101279.09
2022-12-01T12:28:32.960Z,101273.00
2022-12-01T12:31:12.145Z,101272.31
2022-12-01T12:34:24.280Z,101273.44
2022-12-01T12:37:03.928Z,101280.00
2022-12-01T12:39:48.544Z,101281.72
2022-12-01T12:42:27.285Z,101274.84
2022-12-01T12:45:06.487Z,101277.25
2022-12-01T12:47:56.613Z,101278.16
2022-12-01T12:50:36.442Z,101274.63
2022-12-01T12:53:14.859Z,101278.47
2022-12-01T12:55:46.823Z,101280.06
2022-12-01T12:58:22.172Z,101283.09
2022-12-01T13:00:57.774Z,101284.78
2022-12-01T13:03:34.206Z,101284.63
2022-12-01T13:06:08.359Z,101291.78
2022-12-01T13:08:42.776Z,101287.41
2022-12-01T13:11:17.559Z,101293.09
2022-12-01T13:13:57.293Z,101285.00
2022-12-01T13:16:33.143Z,101294.41
2022-12-01T13:19:07.004Z,101296.34
2022-12-01T13:21:41.632Z,101289.81
2022-12-01T13:24:18.519Z,101298.28
2022-12-01T13:26:53.941Z,101300.09
2022-12-01T13:29:26.692Z,101293.06
2022-12-01T13:31:57.345Z,101297.31
2022-12-01T13:34:30.925Z,101298.38
2022-12-01T13:36:59.669Z,101288.91
2022-12-01T13:39:35.911Z,101291.38
2022-12-01T13:42:08.397Z,101289.19
2022-12-01T13:44:42.588Z,101302.28
2022-12-01T13:47:34.602Z,101301.38
2022-12-01T13:50:36.291Z,101297.91
2022-12-01T13:53:13.867Z,101296.91
2022-12-01T13:56:01.354Z,101304.75
2022-12-01T13:58:48.833Z,101296.53
2022-12-01T14:01:50.514Z,101298.84
2022-12-01T14:04:39.795Z,101294.59
2022-12-01T14:07:42.039Z,101295.22
2022-12-01T14:10:31.731Z,101297.81
2022-12-01T14:13:05.514Z,101295.22
2022-12-01T14:15:45.205Z,101285.66
2022-12-01T14:18:39.081Z,101293.16
2022-12-01T14:21:10.802Z,101294.13
2022-12-01T14:23:42.363Z,101283.75
2022-12-01T14:26:18.198Z,101288.69
2022-12-01T14:29:29.050Z,101289.56
2022-12-01T14:32:27.326Z,101293.88
2022-12-01T14:34:59.787Z,101288.63
2022-12-01T14:37:37.999Z,101281.81
2022-12-01T14:40:13.451Z,101294.53
2022-12-01T14:43:01.785Z,101293.72
2022-12-01T14:45:38.672Z,101301.47
2022-12-01T14:48:13.812Z,101302.19
2022-12-01T14:50:49.297Z,101293.56
2022-12-01T14:53:24.789Z,101291.88
2022-12-01T14:55:57.837Z,101299.47
2022-12-01T14:58:30.159Z,101284.00
2022-12-01T15:01:06.700Z,101291.63
2022-12-01T15:03:39.041Z,101296.03
2022-12-01T15:06:08.119Z,101296.19
2022-12-01T15:08:49.176Z,101285.72
2022-12-01T15:11:25.651Z,101281.47
2022-12-01T15:13:56.566Z,101280.53
2022-12-01T15:16:32.268Z,101271.22
2022-12-01T15:19:00.870Z,101278.00
2022-12-01T15:21:32.344Z,101266.84
2022-12-01T15:24:02.674Z,101270.94
2022-12-01T15:26:33.018Z,101270.06
2022-12-01T15:29:16.821Z,101270.84
2022-12-01T15:31:50.358Z,101276.00
2022-12-01T15:34:23.466Z,101275.91
2022-12-01T15:36:53.612Z,101271.59
2022-12-01T15:39:27.608Z,101273.16
2022-12-01T15:41:56.226Z,101267.09
2022-12-01T15:44:33.262Z,101267.28
2022-12-01T15:47:35.986Z,101270.63
2022-12-01T15:50:06.407Z,101259.44
2022-12-01T15:52:43.887Z,101253.75
2022-12-01T15:55:24.370Z,101269.84
2022-12-01T15:57:53.145Z,101269.16
2022-12-01T16:00:22.725Z,101261.28
2022-12-01T16:02:55.813Z,101273.25
2022-12-01T16:05:27.170Z,101267.91
2022-12-01T16:10:44.374Z,101275.16
2022-12-01T16:13:39.681Z,101275.09
2022-12-01T16:16:36.208Z,101279.31
2022-12-01T16:19:25.967Z,101272.22
2022-12-01T16:21:58.387Z,101280.94
2022-12-01T16:24:31.943Z,101281.78
2022-12-01T16:27:02.833Z,101279.25
2022-12-01T16:29:33.739Z,101287.00
2022-12-01T16:32:20.151Z,101279.25
2022-12-01T16:34:51.578Z,101278.53
2022-12-01T16:37:21.871Z,101275.84
2022-12-01T16:39:50.799Z,101284.47
2022-12-01T16:42:21.295Z,101279.25
2022-12-01T16:44:50.766Z,101270.31
2022-12-01T16:47:23.039Z,101272.78
2022-12-01T16:49:53.763Z,101278.78
2022-12-01T16:52:43.667Z,101279.16
2022-12-01T16:55:26.893Z,101271.34
2022-12-01T16:57:57.184Z,101278.16
2022-12-01T17:00:26.193Z,101287.63
2022-12-01T17:02:54.735Z,101271.66
2022-12-01T17:05:24.620Z,101283.66
2022-12-01T17:07:53.257Z,101283.66
2022-12-01T17:10:22.677Z,101281.81
2022-12-01T17:12:51.781Z,101279.31
2022-12-01T17:15:20.677Z,101277.50
2022-12-01T17:17:49.712Z,101286.38
2022-12-01T17:20:18.489Z,101276.06
2022-12-01T17:22:49.148Z,101270.59
2022-12-01T17:25:17.707Z,101275.06
2022-12-01T17:27:46.218Z,101282.84
2022-12-01T17:30:15.277Z,101279.44
2022-12-01T17:32:44.056Z,101271.50
2022-12-01T17:35:12.566Z,101280.59
2022-12-01T17:37:41.369Z,101278.88
2022-12-01T17:40:16.042Z,101278.88
2022-12-01T17:42:50.296Z,101280.59
2022-12-01T17:45:19.699Z,101261.81
2022-12-01T17:47:48.756Z,101276.66
2022-12-01T17:50:18.263Z,101247.28
2022-12-01T17:52:47.173Z,101250.34
2022-12-01T17:55:17.839Z,101255.50
2022-12-01T17:57:46.313Z,101263.13
2022-12-01T18:00:16.193Z,101263.50
2022-12-01T18:02:44.634Z,101259.97
2022-12-01T18:05:13.312Z,101259.56
2022-12-01T18:07:42.198Z,101275.50
2022-12-01T18:10:11.435Z,101268.56
2022-12-01T18:12:41.660Z,101273.66
2022-12-01T18:15:11.209Z,101269.75
2022-12-01T18:17:39.729Z,101273.91
2022-12-01T18:20:10.025Z,101279.03
2022-12-01T18:22:38.742Z,101265.19
2022-12-01T18:25:07.713Z,101270.38
2022-12-01T18:27:36.600Z,101275.50
2022-12-01T18:30:08.149Z,101269.59
2022-12-01T18:32:36.704Z,101274.09
2022-12-01T18:35:05.999Z,101277.19
2022-12-01T18:37:36.124Z,101275.59
2022-12-01T18:40:04.943Z,101276.56
2022-12-01T18:42:33.483Z,101276.50
2022-12-01T18:45:01.985Z,101279.50
2022-12-01T18:47:32.195Z,101272.56
2022-12-01T18:50:00.890Z,101281.97
2022-12-01T18:52:29.315Z,101284.56
2022-12-01T18:54:57.745Z,101274.25
2022-12-01T18:57:26.690Z,101275.94
2022-12-01T18:59:55.348Z,101272.56
2022-12-01T19:02:23.826Z,101274.25
2022-12-01T19:04:53.653Z,101277.78
2022-12-01T19:07:26.595Z,101263.13
2022-12-01T19:09:58.482Z,101267.47
2022-12-01T19:12:27.138Z,101271.94
2022-12-01T19:14:56.115Z,101274.41
2022-12-01T19:17:25.002Z,101273.34
2022-12-01T19:19:54.882Z,101271.03
2022-12-01T19:22:23.499Z,101263.31
2022-12-01T19:24:52.612Z,101261.56
2022-12-01T19:27:21.307Z,101270.34
2022-12-01T19:29:50.370Z,101264.97
2022-12-01T19:32:19.402Z,101270.19
2022-12-01T19:34:48.479Z,101269.19
2022-12-01T19:37:18.919Z,101268.25
2022-12-01T19:39:47.787Z,101270.81
2022-12-01T19:42:16.272Z,101271.78
2022-12-01T19:44:44.966Z,101271.78
2022-12-01T19:47:15.548Z,101274.56
2022-12-01T19:49:47.489Z,101267.47
2022-12-01T19:52:17.556Z,101261.78
2022-12-01T19:54:45.985Z,101257.63
2022-12-01T19:57:14.367Z,101267.16
2022-12-01T19:59:43.355Z,101271.47
2022-12-01T20:02:12.574Z,101276.84
2022-12-01T20:04:41.011Z,101281.09
2022-12-01T20:07:09.396Z,101275.88
2022-12-01T20:09:44.359Z,101268.03
2022-12-01T20:12:15.391Z,101273.31
2022-12-01T20:14:44.887Z,101257.22
2022-12-01T20:17:16.048Z,101272.63
2022-12-01T20:19:44.615Z,101269.72
2022-12-01T20:22:13.096Z,101279.69
2022-12-01T20:24:42.920Z,101278.69
2022-12-01T20:27:11.357Z,101270.22
2022-12-01T20:29:39.901Z,101272.00
2022-12-01T20:32:08.379Z,101274.59
2022-12-01T20:34:37.934Z,101272.19
2022-12-01T20:37:07.352Z,101264.34
2022-12-01T20:39:38.652Z,101261.19
2022-12-01T20:42:09.184Z,101266.28
2022-12-01T20:44:38.547Z,101263.59
2022-12-01T20:47:07.048Z,101272.19
2022-12-01T20:49:35.512Z,101260.00
2022-12-01T20:52:03.897Z,101266.81
2022-12-01T20:54:32.591Z,101268.53
2022-12-01T20:57:01.077Z,101264.34
2022-12-01T20:59:31.101Z,101261.13
2022-12-01T21:01:59.645Z,101255.53
2022-12-01T21:04:28.227Z,101258.00
2022-12-01T21:06:57.437Z,101255.25
2022-12-01T21:09:26.379Z,101260.63
2022-12-01T21:12:12.505Z,101254.19
2022-12-01T21:14:46.078Z,101258.34
2022-12-01T21:17:26.710Z,101260.00
2022-12-01T21:20:01.836Z,101259.41
2022-12-01T21:22:30.255Z,101264.59
2022-12-01T21:25:04.103Z,101256.66
2022-12-01T21:27:32.823Z,101252.50
2022-12-01T21:30:03.090Z,101237.34
2022-12-01T21:32:33.226Z,101255.88
2022-12-01T21:35:10.348Z,101248.47
2022-12-01T21:37:39.071Z,101252.00
2022-12-01T21:40:17.499Z,101255.41
2022-12-01T21:42:45.965Z,101256.19
2022-12-01T21:45:22.413Z,101250.16
2022-12-01T21:47:50.829Z,101256.75
2022-12-01T21:50:25.191Z,101252.78
2022-12-01T21:52:54.049Z,101247.50
2022-12-01T21:55:37.259Z,101255.88
2022-12-01T21:58:28.317Z,101251.53
2022-12-01T22:00:59.715Z,101251.81
2022-12-01T22:03:43.383Z,101258.66
2022-12-01T22:06:29.870Z,101258.94
2022-12-01T22:09:02.169Z,101247.06
2022-12-01T22:11:31.990Z,101241.84
2022-12-01T22:14:06.727Z,101238.31
2022-12-01T22:16:39.656Z,101242.41
2022-12-01T22:19:23.793Z,101239.72
2022-12-01T22:21:56.221Z,101241.69
2022-12-01T22:24:29.259Z,101246.09
2022-12-01T22:27:28.706Z,101246.09
2022-12-01T22:30:02.794Z,101242.84
2022-12-01T22:32:38.637Z,101250.59
2022-12-01T22:35:31.217Z,101241.78
2022-12-01T22:38:21.830Z,101245.03
2022-12-01T22:40:58.755Z,101250.03
2022-12-01T22:43:41.074Z,101258.50
2022-12-01T22:46:17.957Z,101231.97
2022-12-01T22:48:50.523Z,101226.59
2022-12-01T22:51:48.266Z,101245.66
2022-12-01T22:54:39.656Z,101236.47
2022-12-01T22:57:25.748Z,101240.25
2022-12-01T22:59:55.413Z,101239.38
2022-12-01T23:02:27.056Z,101234.94
2022-12-01T23:05:01.521Z,101238.59
2022-12-01T23:07:34.270Z,101238.75
2022-12-01T23:10:13.047Z,101232.47
2022-12-01T23:12:42.068Z,101228.09
2022-12-01T23:15:23.537Z,101222.78
2022-12-01T23:17:52.521Z,101225.47
2022-12-01T23:20:38.213Z,101214.59
2022-12-01T23:23:18.060Z,101226.53
2022-12-01T23:25:48.160Z,101215.16
2022-12-01T23:28:17.277Z,101212.13
2022-12-01T23:30:47.663Z,101215.66
2022-12-01T23:33:22.224Z,101208.94
2022-12-01T23:35:58.288Z,101206.56
2022-12-01T23:38:31.045Z,101211.50
2022-12-01T23:41:03.767Z,101215.03
2022-12-01T23:43:36.549Z,101195.09
2022-12-01T23:46:10.212Z,101198.34
2022-12-01T23:48:43.130Z,101200.91
2022-12-01T23:51:20.004Z,101204.19
2022-12-01T23:53:48.894Z,101200.75
2022-12-01T23:56:21.377Z,101199.69
2022-12-01T23:58:51.037Z,101189.97
